Fort Yukon, AK

4:17 AM AKDT on August 22, 2014 (GMT -0800)
Fort Yukon | Change Station
CLOSE
Current Station
Airport
Location: Fort Yukon,
Elevation: 430 ft
Nearby Weather Stations

Elev 430 ft 66.57 °N, 145.27 °W | Updated 21 minutes ago

Overcast
Overcast
54 °F
Feels Like 54 °F
N
0
Wind Variable Wind from North

Today
High -- | Low -- °F
--% Chance of Precip.
Yesterday
High -- | Low -- °F
Precip. -- in
5:43 AM 9:46 PM
Waning Crescent, 8% visible
Pressure 30.17 in
Visibility 10.0 miles
Clouds Overcast 6500 ft
Dew Point 46 °F
Humidity 77%
Rainfall 0.00 in
Snow Depth 2 in
UV 0 out of 12
Pollen Not available.
Air Quality Not available.
Flu Activity Not available.
METAR PFYU 221156Z 00000KT 10SM OVC065 12/08 A3017 RMK AO1 10130 20110 54000

More Conditions Fewer Conditions

Pressure 30.17 in
Visibility 10.0 miles
Clouds Overcast 6500 ft
Dew Point 46 °F
Humidity 77%
Rainfall 0.00 in
Snow Depth 2 in
UV 0 out of 12
Pollen Not available.
Air Quality Not available.
Flu Activity Not available.
METAR PFYU 221156Z 00000KT 10SM OVC065 12/08 A3017 RMK AO1 10130 20110 54000

More Conditions Fewer Conditions

10-Day Weather Forecast

Almanac

Astronomy

Aug. 22, 2014 Rise Set
Actual Time 5:43 AM AKDT 9:46 PM AKDT
Civil Twilight 4:34 AM AKDT 10:53 PM AKDT
Nautical Twilight 2:18 AM AKDT 1:19 AM AKDT
Astronomical Twilight Sun does not rise Sun does not rise
Moon 2:39 AM AKDT 8:20 PM AKDT
Length of Visible Light 18h 19m
Length of Day
16h 03m
Tomorrow will be 7m 31s shorter.
Waning Crescent, 8% of the Moon is Illuminated
Today
Waning Crescent
Aug 25
New
Sep 2
First Quarter
Sep 8
Full
Sep 15
Last Quarter

Today's Extremes

State Highs State Lows

Community

WunderPhotos

Upload Photos

1,746,155 photos uploaded!

WunderBlogs® & News

By Dr. Jeff Masters
Director of Meteorology, Weather Underground
By Kari Strenfel
Meteorologist, Weather Underground
By Christopher C. Burt
Weather Historian, Weather Underground
August 22, 2014
August 22, 2014
August 22, 2014

Nearby

Snow Depth

Station Depth Elevation
Fort Yukon 2 in 430 ft
Eagle Summit 0 in 3650 ft
Little Chena Ridge 1 in 2000 ft
Upper Chena 1 in 2850 ft
Munson Ridge 1 in 3100 ft

Earthquake Activity

City Distance Mag. Time & Date
No recent earthquake activity has been reported nearby.
Minimum magnitude displayed is 2.5.

Coastal Water Temperatures

Place Temperature
No Stations Reporting

Nearby Weather Stations